メインページ
METAR-TAF:

METAR-TAF

空港 :

シャールジャ国際空港

シャールジャ, アラブ首長国連邦

緯度: 25-20N, 経度: 055-31E, 海抜: 35m

現時点の気象観測

当レポートは1時間3分前の17:00(UTC)に作成
北/北西の風 3kt
気温 24°C
湿度 57%
気圧 1017 hPa
視程10km以上
1,500メートル以下は雲なし、積乱雲なし

METAR: OMSJ 111700Z 33003KT CAVOK 24/15 Q1017

時間: 22:03 (18:03 UTC)

予報

当レポートは1時間8分前の16:55(UTC)に作成
予報は11日の 18時(UTC)から 13日の 00時(UTC)まで有効
西の風 10kt
視程10km以上
1,500メートル以下は雲なし、積乱雲なし
11日の 18時(UTC)から 11日の 20時(UTC)まで徐々に
南/南西の風 5kt
12日の 08時(UTC)から 12日の 10時(UTC)まで徐々に
西の風 10kt
12日の 15時(UTC)から 12日の 17時(UTC)まで徐々に
南/南東の風 5kt

TAF: OMSJ 111655Z 1118/1300 27010KT CAVOK BECMG 1118/1120 20005KT BECMG 1208/1210 28010KT BECMG 1215/1217 16005KT

4,000以上の空港の気象観測と天気予報(METAR報とTAF報)

利用可能な観測所は地図上に黄色い丸と赤い丸で示す。

丸の上にカーソルを重ねると観測所名を参照できる。

次にクリックすると気象観測と天気予報を参照できる。

マップの切り替え:黒色「×」印の緑ボタンをクリックして拡大、「-」印の緑ボタンをクリックして縮小、緑色の三角印をクリックして隣りの地図に切り替え


METAR-TAF: